BGSFCYDF [SWR571]

Guest
Details From BGSF - Kangerlussuaq
To CYDF - Deer Lake
Flight Number SWR571
Tags Real Commercial Decoded
Created
Modified
Stats Distance 1,088 nm / 2,016 km
Max Altitude 5,242 ft / 1,598 m
Waypoints 3
Social Downloads 3
Likes 0
Share VATSIM

Download

Looking for another format? Having issues loading an existing format? Contact us
Advertisement - Login to hide

Notes

Decoded

Route

BGSF OMVIX CYDF

ID Type Via Altitude Latitude Longitude Leg Dist Tot Dist Heading (true) Name
O BGSF APT - 0 ft / 0 m 67.00561˚ -50.74307˚ - 0 nm - -
OMVIX FIX - 5,242 ft / 1,598 m 49.38033˚ -57.30400˚ 1077 nm 1077 nm 194° / 188° -
O CYDF APT - 0 ft / 0 m 49.20533˚ -57.40033˚ 11 nm 1088 nm 200° / 200° -

Altitude Profile

Advertisement - Login to hide

Weather


0- 5 10 15 20 25 30 35+ Temperature / ° C

Clouds and Precipitation
Forecast for 2017-12-18 18:00 UTC. Updated 2 hours ago

Ground ~20,000 ft ~40,000 ft Winds

BGSF

Details ICAO BGSF (SFJ)
Name Kangerlussuaq
Region Greenland
Timezone America/Godthab (UTC-3.0)
Stats Elevation 165 ft / 50 m (AMSL)
Location 67.011605° -50.714721°
Runways 2
Magnetic Variation 29.030° W

METAR

BGSF 181850Z AUTO 07007KT 7000NDV -SN FEW035/// BKN070/// M11/M13 Q0984

Decode

TAF

Not found

Departure Runways

ID Width Length Bearing (true) Bearing (mag) Surface Threshold Offset Overrun Length
09 197 ft / 60 m 9,169 ft / 2,795 m 61.57° 90.60° Asphalt 0 ft / 0 m 509 ft / 155 m
10 197 ft / 60 m 9,187 ft / 2,800 m 61.55° 90.58° Asphalt 0 ft / 0 m 0 ft / 0 m
27 197 ft / 60 m 9,169 ft / 2,795 m 241.63° 270.66° Asphalt 0 ft / 0 m 171 ft / 52 m
28 197 ft / 60 m 9,187 ft / 2,800 m 241.60° 270.63° Asphalt 0 ft / 0 m 0 ft / 0 m

CYDF

Details ICAO CYDF (YDF)
Name DEER LAKE
Region Canada
Timezone America/St_Johns (UTC-3.5)
Stats Elevation 72 ft / 22 m (AMSL)
Location 49.211000° -57.391246°
Runways 1
Magnetic Variation 19.132° W

METAR

CYDF 181900Z 27010KT 240V310 12SM BKN026 M07/M13 A2991 RMK SC6 SLP133

Decode

TAF

TAF CYDF 181338Z 1814/1902 26012G22KT P6SM BKN025 TEMPO 1814/1902 4SM -SHSN BKN020 RMK NXT FCST BY 182000Z

Decode

Destination Runways

ID Width Length Bearing (true) Bearing (mag) Surface Threshold Offset Overrun Length
07 151 ft / 46 m 5,989 ft / 1,825 m 46.32° 65.45° Asphalt 0 ft / 0 m 0 ft / 0 m
25 151 ft / 46 m 5,989 ft / 1,825 m 226.34° 245.47° Asphalt 0 ft / 0 m 0 ft / 0 m

Approach Navaids

Runway Type Ident Frequency Range Bearing (true) Bearing (mag) Slope Elevation
25 Localiser IDF 110.30 MHz 18 nm / 33 km 226.30° 245.43° - 72 ft / 22 m (AMSL)
25 Glidescope IDF 110.30 MHz 10 nm / 19 km 249.00° 268.13° 2.70° 72 ft / 22 m (AMSL)

Popular Alternatives